Time;durP1;ratioP1;P1;durP2;ratioP2;P2;SDS_P1;SDS_P2;PMS_P1;PMS_P2;Temp;Humidity;BMP_temperature;BMP_pressure;BME280_temperature;BME280_humidity;BME280_pressure;Samples;Min_cycle;Max_cycle;Signal;HPM_P1;HPM_P2
2023/09/07 00:01:57;;;;;;;;;;;23.00;74.40;;;;;;5094074;28;19928;-67
2023/09/07 00:04:22;;;;;;;;;;;23.00;74.40;;;;;;5093275;28;19927;-68
2023/09/07 00:06:49;;;;;;;;;;;23.00;74.30;;;;;;5092937;28;19920;-68
2023/09/07 00:09:16;;;;;;;;;;;23.00;74.40;;;;;;5094108;28;19920;-67
2023/09/07 00:11:41;;;;;;;;;;;23.00;74.30;;;;;;5092711;28;19924;-67
2023/09/07 00:14:07;;;;;;;;;;;22.90;74.30;;;;;;5093082;28;19927;-67
2023/09/07 00:16:35;;;;;;;;;;;23.00;74.30;;;;;;5092709;28;19965;-68
2023/09/07 00:19:02;;;;;;;;;;;22.90;74.30;;;;;;5092673;28;19928;-68
2023/09/07 00:21:27;;;;;;;;;;;22.90;74.20;;;;;;5092835;28;19965;-68
2023/09/07 00:23:53;;;;;;;;;;;22.90;74.20;;;;;;5094098;28;20321;-67
2023/09/07 00:26:18;;;;;;;;;;;23.00;74.20;;;;;;5093775;28;19942;-67
2023/09/07 00:28:44;;;;;;;;;;;22.90;74.10;;;;;;5092878;28;19947;-68
2023/09/07 00:31:10;;;;;;;;;;;22.90;74.10;;;;;;5092350;28;19924;-68
2023/09/07 00:33:35;;;;;;;;;;;22.90;74.10;;;;;;5092376;28;19920;-67
2023/09/07 00:36:01;;;;;;;;;;;22.90;74.10;;;;;;5092637;28;19997;-67
2023/09/07 00:38:27;;;;;;;;;;;22.90;74.10;;;;;;5092355;28;20383;-68
2023/09/07 00:40:52;;;;;;;;;;;22.90;74.00;;;;;;5092582;28;19927;-67
2023/09/07 00:43:18;;;;;;;;;;;22.90;74.00;;;;;;5093516;28;19921;-68
2023/09/07 00:45:43;;;;;;;;;;;22.90;74.00;;;;;;5092519;28;19920;-67
2023/09/07 00:48:11;;;;;;;;;;;22.90;74.00;;;;;;5093312;28;20016;-68
2023/09/07 00:50:37;;;;;;;;;;;22.90;74.00;;;;;;5092466;28;20383;-67
2023/09/07 00:53:03;;;;;;;;;;;22.90;74.00;;;;;;5092952;28;20001;-68
2023/09/07 00:55:32;;;;;;;;;;;22.90;73.90;;;;;;5092009;28;20011;-67
2023/09/07 00:57:58;;;;;;;;;;;22.90;73.90;;;;;;5091920;28;19969;-68
2023/09/07 01:00:23;;;;;;;;;;;22.90;73.90;;;;;;5091711;28;19920;-67
2023/09/07 01:02:50;;;;;;;;;;;22.90;73.90;;;;;;5091386;28;20014;-67
2023/09/07 01:05:15;;;;;;;;;;;22.90;73.90;;;;;;5092131;28;19963;-68
2023/09/07 01:07:44;;;;;;;;;;;22.90;73.90;;;;;;5091853;28;19970;-67
2023/09/07 01:10:09;;;;;;;;;;;22.90;73.90;;;;;;5092079;28;20363;-67
2023/09/07 01:12:35;;;;;;;;;;;22.80;73.80;;;;;;5091645;28;19928;-67
2023/09/07 01:15:01;;;;;;;;;;;22.80;73.80;;;;;;5092064;28;20316;-68
2023/09/07 01:17:27;;;;;;;;;;;22.80;73.80;;;;;;5091614;28;19920;-68
2023/09/07 01:19:54;;;;;;;;;;;22.80;73.80;;;;;;5091923;28;19924;-68
2023/09/07 01:22:20;;;;;;;;;;;22.80;73.80;;;;;;5091886;28;20145;-68
2023/09/07 01:24:45;;;;;;;;;;;22.80;73.80;;;;;;5092753;28;20402;-67
2023/09/07 01:27:13;;;;;;;;;;;22.80;73.70;;;;;;5091680;28;19920;-67
2023/09/07 01:29:38;;;;;;;;;;;22.80;73.70;;;;;;5091811;28;19920;-67
2023/09/07 01:32:04;;;;;;;;;;;22.80;73.70;;;;;;5091381;28;20019;-68
2023/09/07 01:34:30;;;;;;;;;;;22.80;73.70;;;;;;5092617;28;20019;-68
2023/09/07 01:36:55;;;;;;;;;;;22.80;73.70;;;;;;5092878;28;19927;-67
2023/09/07 01:39:21;;;;;;;;;;;22.80;73.70;;;;;;5091739;28;19931;-67
2023/09/07 01:41:47;;;;;;;;;;;22.80;73.60;;;;;;5092641;28;19920;-68
2023/09/07 01:44:13;;;;;;;;;;;22.80;73.60;;;;;;5091256;28;19920;-68
2023/09/07 01:46:38;;;;;;;;;;;22.70;73.50;;;;;;5092563;28;19928;-67
2023/09/07 01:49:04;;;;;;;;;;;22.70;73.60;;;;;;5091412;28;20422;-68
2023/09/07 01:51:29;;;;;;;;;;;22.80;73.50;;;;;;5092408;28;19924;-67
2023/09/07 01:53:55;;;;;;;;;;;22.80;73.50;;;;;;5092600;28;19942;-67
2023/09/07 01:56:20;;;;;;;;;;;22.70;73.50;;;;;;5091217;28;19920;-68
2023/09/07 01:58:46;;;;;;;;;;;22.70;73.50;;;;;;5092292;28;19920;-67
2023/09/07 02:01:29;;;;;;;;;;;22.70;73.40;;;;;;5091154;28;19920;-68
2023/09/07 02:03:55;;;;;;;;;;;22.70;73.40;;;;;;5092191;28;19920;-67
2023/09/07 02:06:20;;;;;;;;;;;22.70;73.40;;;;;;5092596;28;20014;-68
2023/09/07 02:08:46;;;;;;;;;;;22.80;73.40;;;;;;5092663;28;19924;-67
2023/09/07 02:11:12;;;;;;;;;;;22.70;73.40;;;;;;5091204;28;19955;-67
2023/09/07 02:13:37;;;;;;;;;;;22.70;73.30;;;;;;5093876;28;19920;-67
2023/09/07 02:16:04;;;;;;;;;;;22.70;73.30;;;;;;5095363;28;20363;-68
2023/09/07 02:18:29;;;;;;;;;;;22.70;73.30;;;;;;5095044;28;19936;-68
2023/09/07 02:21:00;;;;;;;;;;;22.70;73.20;;;;;;5094957;28;19965;-68
2023/09/07 02:23:26;;;;;;;;;;;22.70;73.20;;;;;;5095280;28;19920;-68
2023/09/07 02:25:51;;;;;;;;;;;22.70;73.10;;;;;;5094883;28;19920;-68
2023/09/07 02:28:16;;;;;;;;;;;22.70;73.80;;;;;;5095147;28;19920;-67
2023/09/07 02:30:42;;;;;;;;;;;22.70;73.10;;;;;;5094778;28;19999;-69
2023/09/07 02:33:07;;;;;;;;;;;22.70;73.10;;;;;;5094629;28;19924;-68
2023/09/07 02:35:36;;;;;;;;;;;22.70;73.00;;;;;;5094969;28;20043;-67
2023/09/07 02:38:01;;;;;;;;;;;22.70;73.00;;;;;;5096068;28;19920;-67
2023/09/07 02:40:27;;;;;;;;;;;22.60;73.00;;;;;;5095873;28;20433;-67
2023/09/07 02:42:52;;;;;;;;;;;22.70;73.00;;;;;;5095979;28;19920;-67
2023/09/07 02:45:18;;;;;;;;;;;22.70;72.90;;;;;;5095844;28;19927;-68
2023/09/07 02:47:43;;;;;;;;;;;22.60;72.90;;;;;;5094779;28;20365;-67
2023/09/07 02:50:09;;;;;;;;;;;22.60;73.60;;;;;;5094741;28;19927;-67
2023/09/07 02:52:34;;;;;;;;;;;22.60;72.80;;;;;;5094083;28;19931;-68
2023/09/07 02:55:00;;;;;;;;;;;22.60;72.80;;;;;;5094356;28;19973;-68
2023/09/07 02:57:25;;;;;;;;;;;22.60;72.70;;;;;;5094713;28;19920;-67
2023/09/07 02:59:52;;;;;;;;;;;22.60;72.70;;;;;;5094565;28;20169;-67
2023/09/07 03:02:17;;;;;;;;;;;22.60;72.70;;;;;;5094134;28;19973;-68
2023/09/07 03:04:43;;;;;;;;;;;22.60;72.70;;;;;;5095333;28;19919;-68
2023/09/07 03:07:09;;;;;;;;;;;22.60;72.70;;;;;;5094410;28;19920;-68
2023/09/07 03:09:34;;;;;;;;;;;22.60;72.60;;;;;;5094049;28;19927;-68
2023/09/07 03:12:00;;;;;;;;;;;22.60;72.60;;;;;;5093125;28;19928;-69
2023/09/07 03:14:25;;;;;;;;;;;22.60;72.60;;;;;;5095015;28;19927;-68
2023/09/07 03:16:51;;;;;;;;;;;22.60;72.60;;;;;;5077337;28;20302;-68
2023/09/07 03:19:16;;;;;;;;;;;22.60;72.60;;;;;;5093903;28;19920;-68
2023/09/07 03:21:42;;;;;;;;;;;22.60;72.60;;;;;;5094042;28;19990;-67
2023/09/07 03:24:07;;;;;;;;;;;22.60;72.60;;;;;;5094629;28;20359;-67
2023/09/07 03:26:33;;;;;;;;;;;22.60;72.60;;;;;;5094062;28;19928;-68
2023/09/07 03:28:58;;;;;;;;;;;22.60;72.50;;;;;;5093968;28;19946;-68
2023/09/07 03:31:24;;;;;;;;;;;22.50;72.40;;;;;;5094833;28;19920;-70
2023/09/07 03:33:49;;;;;;;;;;;22.50;72.40;;;;;;5094808;28;20011;-67
2023/09/07 03:36:15;;;;;;;;;;;22.50;72.30;;;;;;5094779;28;19947;-68
2023/09/07 03:38:41;;;;;;;;;;;22.50;72.30;;;;;;5093742;28;19920;-68
2023/09/07 03:41:06;;;;;;;;;;;22.50;72.20;;;;;;5094777;28;20178;-68
2023/09/07 03:43:32;;;;;;;;;;;22.50;72.30;;;;;;5093624;28;20371;-68
2023/09/07 03:45:57;;;;;;;;;;;22.50;72.20;;;;;;5093639;28;19920;-67
2023/09/07 03:48:23;;;;;;;;;;;22.50;72.30;;;;;;5093230;28;20397;-68
2023/09/07 03:50:48;;;;;;;;;;;22.50;72.10;;;;;;5093504;28;20018;-67
2023/09/07 03:53:14;;;;;;;;;;;22.50;72.10;;;;;;5092811;28;19924;-67
2023/09/07 03:55:40;;;;;;;;;;;22.50;72.10;;;;;;5093116;28;20015;-68
2023/09/07 03:58:06;;;;;;;;;;;22.50;72.10;;;;;;5093332;28;19920;-67
2023/09/07 04:00:31;;;;;;;;;;;22.50;72.10;;;;;;5093054;28;20299;-67
2023/09/07 04:02:57;;;;;;;;;;;22.50;72.00;;;;;;5094211;28;19955;-68
2023/09/07 04:05:22;;;;;;;;;;;22.40;71.90;;;;;;5094248;28;19920;-68
2023/09/07 04:07:50;;;;;;;;;;;22.50;71.90;;;;;;5093210;28;19981;-68
2023/09/07 04:10:15;;;;;;;;;;;22.50;71.90;;;;;;5092377;28;19974;-67
2023/09/07 04:12:40;;;;;;;;;;;22.50;71.90;;;;;;5093975;28;19928;-68
2023/09/07 04:15:06;;;;;;;;;;;22.50;71.90;;;;;;5093057;28;19920;-68
2023/09/07 04:17:39;;;;;;;;;;;22.40;71.80;;;;;;5092751;28;19920;-68
2023/09/07 04:20:06;;;;;;;;;;;22.40;71.80;;;;;;5094344;28;19920;-69
2023/09/07 04:22:31;;;;;;;;;;;22.40;71.70;;;;;;5092941;28;19920;-68
2023/09/07 04:24:57;;;;;;;;;;;22.40;71.70;;;;;;5093813;28;19920;-67
2023/09/07 04:27:22;;;;;;;;;;;22.40;71.70;;;;;;5092562;28;20314;-68
2023/09/07 04:29:49;;;;;;;;;;;22.30;71.70;;;;;;5092712;28;19920;-68
2023/09/07 04:32:15;;;;;;;;;;;22.40;71.70;;;;;;5092371;28;20380;-68
2023/09/07 04:34:40;;;;;;;;;;;22.30;71.70;;;;;;5092626;28;19930;-67
2023/09/07 04:37:06;;;;;;;;;;;22.40;71.70;;;;;;5092758;28;19924;-68
2023/09/07 04:39:31;;;;;;;;;;;22.30;71.60;;;;;;5092691;28;19974;-68
2023/09/07 04:41:57;;;;;;;;;;;22.30;71.70;;;;;;5093624;28;19920;-69
2023/09/07 04:44:22;;;;;;;;;;;22.30;71.70;;;;;;5092493;28;20006;-68
2023/09/07 04:46:48;;;;;;;;;;;22.30;71.60;;;;;;5092509;28;19920;-67
2023/09/07 04:49:13;;;;;;;;;;;22.30;71.60;;;;;;5092175;28;19920;-67
2023/09/07 04:51:39;;;;;;;;;;;22.30;71.60;;;;;;5092108;28;20031;-67
2023/09/07 04:54:04;;;;;;;;;;;22.30;71.60;;;;;;5093290;28;19924;-68
2023/09/07 04:56:30;;;;;;;;;;;22.30;71.60;;;;;;5093374;28;19924;-69
2023/09/07 04:58:55;;;;;;;;;;;22.30;71.70;;;;;;5092319;28;20377;-68
2023/09/07 05:01:21;;;;;;;;;;;22.30;71.60;;;;;;5091887;28;19965;-68
2023/09/07 05:03:46;;;;;;;;;;;22.30;71.70;;;;;;5091860;28;19920;-68
2023/09/07 05:06:12;;;;;;;;;;;22.30;71.70;;;;;;5093132;28;19963;-69
2023/09/07 05:08:38;;;;;;;;;;;22.30;71.70;;;;;;5093055;28;19949;-69
2023/09/07 05:11:05;;;;;;;;;;;22.30;71.70;;;;;;5093247;28;20382;-68
2023/09/07 05:13:31;;;;;;;;;;;22.30;71.70;;;;;;5093165;28;20390;-68
2023/09/07 05:15:58;;;;;;;;;;;22.20;71.60;;;;;;5092952;28;19920;-68
2023/09/07 05:18:23;;;;;;;;;;;22.20;71.60;;;;;;5091020;28;19941;-73
2023/09/07 05:20:51;;;;;;;;;;;22.20;71.60;;;;;;5091565;28;19923;-69
2023/09/07 05:23:18;;;;;;;;;;;22.20;71.60;;;;;;5091956;28;19939;-68
2023/09/07 05:28:25;;;;;;;;;;;22.20;71.20;;;;;;5105480;27;19912;-67
2023/09/07 05:30:51;;;;;;;;;;;22.20;71.20;;;;;;5107691;28;20264;-68
2023/09/07 05:33:16;;;;;;;;;;;22.20;71.20;;;;;;5106961;28;20417;-70
2023/09/07 05:35:42;;;;;;;;;;;22.20;71.20;;;;;;5132161;27;19924;-68
2023/09/07 05:38:08;;;;;;;;;;;22.30;71.10;;;;;;5101406;28;19981;-67
2023/09/07 05:40:34;;;;;;;;;;;22.20;70.90;;;;;;5108043;28;19916;-68
2023/09/07 05:43:00;;;;;;;;;;;22.20;70.70;;;;;;5106385;28;19916;-67
2023/09/07 05:45:26;;;;;;;;;;;22.20;70.60;;;;;;5105254;28;19949;-67
2023/09/07 05:47:51;;;;;;;;;;;22.20;70.40;;;;;;5106606;28;19920;-67
2023/09/07 05:50:16;;;;;;;;;;;22.20;70.30;;;;;;5107474;28;19935;-67
2023/09/07 05:52:42;;;;;;;;;;;22.20;70.30;;;;;;5106629;28;19985;-67
2023/09/07 05:55:08;;;;;;;;;;;22.20;70.20;;;;;;5107129;28;19978;-67
2023/09/07 05:57:33;;;;;;;;;;;22.20;70.00;;;;;;5107042;28;19920;-67
2023/09/07 05:59:59;;;;;;;;;;;22.20;69.90;;;;;;5106326;28;19927;-68
2023/09/07 06:02:24;;;;;;;;;;;22.10;69.90;;;;;;5106824;28;19965;-68
2023/09/07 06:04:50;;;;;;;;;;;22.10;69.90;;;;;;5104955;28;19920;-67
2023/09/07 06:07:15;;;;;;;;;;;22.00;69.90;;;;;;5109492;28;20405;-67
2023/09/07 06:09:41;;;;;;;;;;;22.00;70.10;;;;;;5096383;28;20409;-67
2023/09/07 06:12:06;;;;;;;;;;;22.00;70.10;;;;;;5086878;28;19961;-69
2023/09/07 06:14:32;;;;;;;;;;;22.00;70.10;;;;;;5090441;28;20007;-68
2023/09/07 06:16:57;;;;;;;;;;;21.90;70.10;;;;;;5101578;28;19965;-68
2023/09/07 06:19:23;;;;;;;;;;;21.90;70.10;;;;;;5100122;28;19920;-67
2023/09/07 06:21:48;;;;;;;;;;;21.90;70.20;;;;;;5097618;28;20391;-69
2023/09/07 06:24:14;;;;;;;;;;;21.90;70.20;;;;;;5097758;28;19920;-67
2023/09/07 06:26:40;;;;;;;;;;;21.90;70.30;;;;;;5100945;27;19932;-71
2023/09/07 06:29:05;;;;;;;;;;;21.90;70.30;;;;;;5097250;28;20018;-70
2023/09/07 06:31:30;;;;;;;;;;;21.90;70.30;;;;;;5081751;28;20013;-70
2023/09/07 06:33:56;;;;;;;;;;;21.90;70.30;;;;;;5078750;28;20055;-69
2023/09/07 06:36:21;;;;;;;;;;;21.90;70.30;;;;;;5085869;28;20506;-68
2023/09/07 06:38:47;;;;;;;;;;;21.90;70.40;;;;;;5099473;28;19931;-68
2023/09/07 06:41:12;;;;;;;;;;;21.90;70.40;;;;;;5072994;28;19924;-67
2023/09/07 06:43:38;;;;;;;;;;;21.90;70.20;;;;;;5079685;28;19927;-68
2023/09/07 06:46:07;;;;;;;;;;;22.00;70.20;;;;;;5095021;27;19927;-68
2023/09/07 06:48:33;;;;;;;;;;;22.00;70.10;;;;;;5071352;28;19920;-68
2023/09/07 06:51:03;;;;;;;;;;;22.00;70.00;;;;;;5074119;28;19942;-68
2023/09/07 06:53:28;;;;;;;;;;;22.00;69.90;;;;;;5078603;28;19923;-68
2023/09/07 06:56:02;;;;;;;;;;;22.10;69.90;;;;;;5094059;28;19998;-68
2023/09/07 06:58:27;;;;;;;;;;;22.00;69.80;;;;;;5078293;28;19976;-68
2023/09/07 07:00:57;;;;;;;;;;;22.10;69.90;;;;;;5077907;28;19924;-68
2023/09/07 07:03:22;;;;;;;;;;;22.10;69.80;;;;;;5064924;28;20422;-69
2023/09/07 07:05:48;;;;;;;;;;;22.10;69.80;;;;;;5090045;28;20279;-70
2023/09/07 07:08:13;;;;;;;;;;;22.10;69.90;;;;;;5076199;28;20319;-69
2023/09/07 07:10:38;;;;;;;;;;;22.10;70.60;;;;;;5077520;28;19924;-68
2023/09/07 07:13:04;;;;;;;;;;;22.10;69.80;;;;;;5073173;28;19949;-73
2023/09/07 07:15:29;;;;;;;;;;;22.10;69.90;;;;;;5078445;28;20774;-72
2023/09/07 07:17:55;;;;;;;;;;;22.10;70.00;;;;;;5112045;27;19980;-71
2023/09/07 07:20:20;;;;;;;;;;;22.10;70.20;;;;;;5077920;28;19931;-69
2023/09/07 07:22:46;;;;;;;;;;;22.10;70.20;;;;;;5077639;28;19935;-68
2023/09/07 07:25:11;;;;;;;;;;;22.10;70.30;;;;;;5079112;28;19924;-73
2023/09/07 07:27:38;;;;;;;;;;;22.10;70.30;;;;;;5077146;28;20080;-73
2023/09/07 07:30:04;;;;;;;;;;;22.10;70.40;;;;;;5085401;28;21208;-73
2023/09/07 07:32:30;;;;;;;;;;;22.10;70.50;;;;;;5074791;28;19920;-70
2023/09/07 07:34:55;;;;;;;;;;;22.10;70.60;;;;;;5086364;28;19920;-73
2023/09/07 07:37:21;;;;;;;;;;;22.10;70.70;;;;;;5093802;27;20485;-71
2023/09/07 07:39:46;;;;;;;;;;;22.10;70.70;;;;;;5095958;27;19928;-71
2023/09/07 07:42:12;;;;;;;;;;;22.10;70.80;;;;;;5078407;28;20162;-70
2023/09/07 07:44:37;;;;;;;;;;;22.10;70.90;;;;;;5076436;28;20005;-73
2023/09/07 07:47:03;;;;;;;;;;;22.10;70.90;;;;;;5077260;28;19927;-74
2023/09/07 07:49:28;;;;;;;;;;;22.10;70.90;;;;;;5108191;27;19920;-70
2023/09/07 07:51:55;;;;;;;;;;;22.10;71.00;;;;;;5075494;28;19924;-69
2023/09/07 07:54:22;;;;;;;;;;;22.10;71.10;;;;;;5080319;28;19968;-69
2023/09/07 07:56:48;;;;;;;;;;;22.10;71.10;;;;;;5076252;28;20327;-69
2023/09/07 07:59:13;;;;;;;;;;;22.10;71.10;;;;;;5082302;28;19982;-69
2023/09/07 08:01:40;;;;;;;;;;;22.10;71.10;;;;;;5074399;28;19928;-69
2023/09/07 08:04:06;;;;;;;;;;;22.20;71.20;;;;;;5078105;28;20363;-69
2023/09/07 08:06:32;;;;;;;;;;;22.10;71.20;;;;;;5077646;28;19928;-68
2023/09/07 08:08:57;;;;;;;;;;;22.20;71.20;;;;;;5076592;27;19928;-68
2023/09/07 08:11:23;;;;;;;;;;;22.20;71.20;;;;;;5073799;28;20041;-68
2023/09/07 08:13:49;;;;;;;;;;;22.20;71.20;;;;;;5075453;28;19920;-66
2023/09/07 08:16:15;;;;;;;;;;;22.20;71.30;;;;;;5075389;28;19965;-68
2023/09/07 08:18:41;;;;;;;;;;;22.30;71.40;;;;;;5093482;28;19927;-70
2023/09/07 08:21:06;;;;;;;;;;;22.30;71.50;;;;;;5080370;28;19946;-69
2023/09/07 08:23:32;;;;;;;;;;;22.30;71.60;;;;;;5074494;28;21020;-70
2023/09/07 08:25:58;;;;;;;;;;;22.30;71.70;;;;;;5078517;28;19919;-71
2023/09/07 08:28:25;;;;;;;;;;;22.30;71.70;;;;;;5084915;28;20492;-70
2023/09/07 08:30:54;;;;;;;;;;;22.40;71.80;;;;;;5094793;28;20227;-71
2023/09/07 08:33:23;;;;;;;;;;;22.40;71.90;;;;;;5110697;27;19919;-72
2023/09/07 08:35:52;;;;;;;;;;;22.40;72.00;;;;;;5073334;28;19924;-72
2023/09/07 08:38:22;;;;;;;;;;;22.40;72.00;;;;;;5075520;28;20010;-72
2023/09/07 08:40:47;;;;;;;;;;;22.40;72.00;;;;;;5109970;27;19932;-72
2023/09/07 08:43:14;;;;;;;;;;;22.40;72.00;;;;;;5097003;28;20485;-75
2023/09/07 08:45:45;;;;;;;;;;;22.40;72.00;;;;;;5092959;28;19924;-71
2023/09/07 08:48:12;;;;;;;;;;;22.40;72.00;;;;;;5069717;28;19939;-72
2023/09/07 08:50:38;;;;;;;;;;;22.40;72.00;;;;;;5076582;28;20297;-68
2023/09/07 08:53:03;;;;;;;;;;;22.40;72.10;;;;;;5098227;28;19924;-69
2023/09/07 08:55:29;;;;;;;;;;;22.50;72.10;;;;;;5092205;28;20038;-72
2023/09/07 08:57:54;;;;;;;;;;;22.50;72.90;;;;;;5092397;28;19924;-69
2023/09/07 09:00:20;;;;;;;;;;;22.50;72.20;;;;;;5074056;28;20389;-68
2023/09/07 09:02:47;;;;;;;;;;;22.50;72.30;;;;;;5072024;28;19972;-68
2023/09/07 09:05:14;;;;;;;;;;;22.60;72.50;;;;;;5081908;28;20645;-70
2023/09/07 09:07:39;;;;;;;;;;;22.60;72.60;;;;;;5092352;28;20516;-70
2023/09/07 09:10:06;;;;;;;;;;;22.60;72.60;;;;;;5072699;28;19948;-69
2023/09/07 09:12:31;;;;;;;;;;;22.60;72.70;;;;;;5067040;28;20404;-68
2023/09/07 09:14:58;;;;;;;;;;;22.60;72.70;;;;;;5076345;28;19924;-69
2023/09/07 09:17:24;;;;;;;;;;;22.70;72.90;;;;;;5091406;28;19930;-68
2023/09/07 09:19:49;;;;;;;;;;;22.70;72.90;;;;;;5070646;28;19946;-67
2023/09/07 09:22:15;;;;;;;;;;;22.70;72.90;;;;;;5068559;28;20019;-69
2023/09/07 09:24:40;;;;;;;;;;;22.70;73.00;;;;;;5101093;28;19921;-68
2023/09/07 09:27:06;;;;;;;;;;;22.70;72.90;;;;;;5072586;28;19935;-68
2023/09/07 09:29:33;;;;;;;;;;;22.70;73.00;;;;;;5089834;28;19924;-68
2023/09/07 09:31:59;;;;;;;;;;;22.70;73.00;;;;;;5085570;28;20104;-70
2023/09/07 09:34:29;;;;;;;;;;;22.80;73.10;;;;;;5077567;28;19924;-68
2023/09/07 09:36:54;;;;;;;;;;;22.80;73.10;;;;;;5075552;28;19920;-70
2023/09/07 09:39:21;;;;;;;;;;;22.90;73.20;;;;;;5074665;28;19920;-68
2023/09/07 09:41:47;;;;;;;;;;;22.90;73.20;;;;;;5089259;28;20390;-68
2023/09/07 09:44:13;;;;;;;;;;;22.90;73.20;;;;;;5076207;28;19943;-68
2023/09/07 09:46:39;;;;;;;;;;;22.90;73.20;;;;;;5102389;28;19931;-67
2023/09/07 09:49:05;;;;;;;;;;;23.00;73.20;;;;;;5067883;28;19920;-67
2023/09/07 09:51:31;;;;;;;;;;;23.00;73.30;;;;;;5080139;28;20284;-67
2023/09/07 09:53:57;;;;;;;;;;;23.00;73.20;;;;;;5090990;28;19932;-67
2023/09/07 09:56:22;;;;;;;;;;;23.10;73.40;;;;;;5074464;28;20447;-68
2023/09/07 09:58:48;;;;;;;;;;;23.10;73.30;;;;;;5096410;28;19920;-69
2023/09/07 10:01:15;;;;;;;;;;;23.20;73.10;;;;;;5072076;28;19924;-67
2023/09/07 10:03:45;;;;;;;;;;;23.20;73.20;;;;;;5071793;28;20302;-68
2023/09/07 10:06:12;;;;;;;;;;;23.20;73.00;;;;;;5074137;28;19988;-69
2023/09/07 10:08:37;;;;;;;;;;;23.20;73.10;;;;;;5076630;28;19967;-69
2023/09/07 10:11:10;;;;;;;;;;;23.20;73.10;;;;;;5076216;28;19975;-68
2023/09/07 10:13:35;;;;;;;;;;;23.20;72.90;;;;;;5096576;27;19920;-68
2023/09/07 10:16:07;;;;;;;;;;;23.30;73.00;;;;;;5083699;27;19932;-68
2023/09/07 10:18:33;;;;;;;;;;;23.30;73.00;;;;;;5104638;27;19924;-69
2023/09/07 10:20:59;;;;;;;;;;;23.30;72.90;;;;;;5088638;27;19967;-69
2023/09/07 10:23:41;;;;;;;;;;;23.30;72.90;;;;;;5088743;28;20246;-68
2023/09/07 10:26:15;;;;;;;;;;;23.30;72.80;;;;;;5083730;28;19984;-68
2023/09/07 10:28:41;;;;;;;;;;;23.30;72.60;;;;;;5085043;27;19928;-68
2023/09/07 10:31:12;;;;;;;;;;;23.30;72.60;;;;;;5084230;28;20401;-68
2023/09/07 10:33:38;;;;;;;;;;;23.30;72.60;;;;;;5087014;27;19920;-68
2023/09/07 10:36:04;;;;;;;;;;;23.30;72.40;;;;;;5084648;28;20004;-69
2023/09/07 10:38:31;;;;;;;;;;;23.40;72.30;;;;;;5087528;27;19935;-70
2023/09/07 10:40:58;;;;;;;;;;;23.40;72.40;;;;;;5092093;27;19919;-73
2023/09/07 10:43:24;;;;;;;;;;;23.30;72.30;;;;;;5086285;27;19946;-68
2023/09/07 10:45:53;;;;;;;;;;;23.40;72.40;;;;;;5072733;28;19928;-69
2023/09/07 10:48:18;;;;;;;;;;;23.40;72.30;;;;;;5092057;27;20284;-70
2023/09/07 10:50:44;;;;;;;;;;;23.40;72.30;;;;;;5078137;27;20302;-69
2023/09/07 10:53:11;;;;;;;;;;;23.40;72.20;;;;;;5092853;27;19924;-70
2023/09/07 10:55:39;;;;;;;;;;;23.50;72.30;;;;;;5092442;27;20019;-70
2023/09/07 10:58:05;;;;;;;;;;;23.50;72.50;;;;;;5072380;28;19989;-70
2023/09/07 11:00:31;;;;;;;;;;;23.50;72.50;;;;;;5073579;27;20147;-75
2023/09/07 11:02:56;;;;;;;;;;;23.50;72.30;;;;;;5071989;27;19928;-68
2023/09/07 11:05:22;;;;;;;;;;;23.50;72.40;;;;;;5073396;28;19927;-69
2023/09/07 11:07:48;;;;;;;;;;;23.50;72.40;;;;;;5083902;28;19926;-68
2023/09/07 11:10:13;;;;;;;;;;;23.50;72.50;;;;;;5069698;28;20430;-68
2023/09/07 11:12:40;;;;;;;;;;;23.60;72.80;;;;;;5071542;28;20367;-67
2023/09/07 11:15:08;;;;;;;;;;;23.60;73.00;;;;;;5075968;27;19931;-70
2023/09/07 11:17:36;;;;;;;;;;;23.60;73.00;;;;;;5102530;27;19924;-68
2023/09/07 11:20:05;;;;;;;;;;;23.50;73.10;;;;;;5077265;27;20342;-68
2023/09/07 11:22:30;;;;;;;;;;;23.60;73.20;;;;;;5075161;27;19935;-68
2023/09/07 11:24:56;;;;;;;;;;;23.60;73.40;;;;;;5072089;27;20305;-69
2023/09/07 11:27:21;;;;;;;;;;;23.60;73.50;;;;;;5098631;27;20345;-71
2023/09/07 11:29:51;;;;;;;;;;;23.60;73.20;;;;;;5070521;28;19928;-69
2023/09/07 11:32:21;;;;;;;;;;;23.60;73.20;;;;;;5100435;27;20385;-68
2023/09/07 11:34:49;;;;;;;;;;;23.60;73.10;;;;;;5072958;27;20300;-67
2023/09/07 11:37:14;;;;;;;;;;;23.70;73.30;;;;;;5065460;27;19953;-67
2023/09/07 11:39:40;;;;;;;;;;;23.60;73.40;;;;;;5072545;27;19923;-68
2023/09/07 11:42:05;;;;;;;;;;;23.70;73.20;;;;;;5075078;27;20356;-67
2023/09/07 11:44:31;;;;;;;;;;;23.70;73.30;;;;;;5075843;27;19924;-65
2023/09/07 11:46:56;;;;;;;;;;;23.70;73.20;;;;;;5076312;28;19932;-67
2023/09/07 11:49:22;;;;;;;;;;;23.70;73.10;;;;;;5078696;27;19973;-69
2023/09/07 11:51:47;;;;;;;;;;;23.70;72.80;;;;;;5077010;27;19924;-67
2023/09/07 11:54:13;;;;;;;;;;;23.70;72.70;;;;;;5093034;27;19920;-71
2023/09/07 11:56:42;;;;;;;;;;;23.70;72.80;;;;;;5102042;27;19923;-74
2023/09/07 11:59:09;;;;;;;;;;;23.80;72.80;;;;;;5069798;27;20375;-66
2023/09/07 12:01:34;;;;;;;;;;;23.80;71.60;;;;;;5066072;27;20515;-66
2023/09/07 12:04:00;;;;;;;;;;;23.80;71.00;;;;;;5069101;28;20000;-66
2023/09/07 12:06:26;;;;;;;;;;;23.90;70.80;;;;;;5097254;27;19927;-68
2023/09/07 12:09:00;;;;;;;;;;;23.80;70.90;;;;;;5087506;27;19924;-66
2023/09/07 12:11:25;;;;;;;;;;;23.80;70.60;;;;;;5078793;27;19959;-67
2023/09/07 12:13:51;;;;;;;;;;;23.90;70.40;;;;;;5097549;27;20014;-67
2023/09/07 12:16:16;;;;;;;;;;;23.90;70.50;;;;;;5090998;27;19928;-68
2023/09/07 12:18:42;;;;;;;;;;;24.00;70.20;;;;;;5093163;27;20047;-72
2023/09/07 12:21:08;;;;;;;;;;;24.00;69.70;;;;;;5069056;28;19927;-68
2023/09/07 12:23:33;;;;;;;;;;;24.00;69.30;;;;;;5082447;27;20489;-67
2023/09/07 12:26:00;;;;;;;;;;;24.10;69.20;;;;;;5086509;27;19934;-67
2023/09/07 12:28:26;;;;;;;;;;;24.10;69.40;;;;;;5079726;27;19935;-69
2023/09/07 12:30:51;;;;;;;;;;;24.10;70.60;;;;;;5071190;27;20306;-67
2023/09/07 12:33:17;;;;;;;;;;;24.10;69.60;;;;;;5104451;27;20092;-67
2023/09/07 12:35:45;;;;;;;;;;;24.10;69.40;;;;;;5087183;28;19926;-68
2023/09/07 12:38:15;;;;;;;;;;;24.20;69.50;;;;;;5087197;27;19928;-69
2023/09/07 12:40:40;;;;;;;;;;;24.10;69.10;;;;;;5069886;28;19920;-70
2023/09/07 12:43:06;;;;;;;;;;;24.10;69.30;;;;;;5070616;28;19974;-68
2023/09/07 12:45:31;;;;;;;;;;;24.10;68.90;;;;;;5070023;28;19935;-67
2023/09/07 12:47:57;;;;;;;;;;;24.10;68.50;;;;;;5068213;28;19928;-67
2023/09/07 12:50:23;;;;;;;;;;;24.10;68.60;;;;;;5069918;28;20537;-68
2023/09/07 12:52:48;;;;;;;;;;;24.10;68.70;;;;;;5086075;27;19923;-66
2023/09/07 12:55:14;;;;;;;;;;;24.10;68.90;;;;;;5076418;28;19924;-67
2023/09/07 12:57:40;;;;;;;;;;;24.10;69.00;;;;;;5086011;28;19978;-67
2023/09/07 13:00:06;;;;;;;;;;;24.10;69.50;;;;;;5036566;28;20276;-72
2023/09/07 13:02:31;;;;;;;;;;;24.10;69.80;;;;;;5069988;28;19973;-67
2023/09/07 13:04:57;;;;;;;;;;;24.10;70.10;;;;;;5076600;28;19928;-70
2023/09/07 13:07:22;;;;;;;;;;;24.10;69.60;;;;;;5071371;28;19924;-67
2023/09/07 13:09:48;;;;;;;;;;;24.10;69.30;;;;;;5088964;28;19931;-67
2023/09/07 13:12:13;;;;;;;;;;;24.20;69.10;;;;;;5102844;28;19953;-67
2023/09/07 13:14:42;;;;;;;;;;;24.20;68.90;;;;;;5086065;27;19919;-68
2023/09/07 13:17:12;;;;;;;;;;;24.20;68.90;;;;;;5086623;28;19924;-68
2023/09/07 13:19:37;;;;;;;;;;;24.30;68.80;;;;;;5093669;28;19924;-69
2023/09/07 13:22:03;;;;;;;;;;;24.30;68.70;;;;;;5103678;28;19920;-68
2023/09/07 13:24:28;;;;;;;;;;;24.30;68.70;;;;;;5087491;28;19924;-68
2023/09/07 13:26:55;;;;;;;;;;;24.40;68.60;;;;;;5084526;28;20563;-68
2023/09/07 13:29:21;;;;;;;;;;;24.40;68.40;;;;;;5096857;28;20404;-68
2023/09/07 13:31:46;;;;;;;;;;;24.40;68.30;;;;;;5097970;28;20190;-68
2023/09/07 13:34:12;;;;;;;;;;;24.50;68.30;;;;;;5081403;28;19944;-68
2023/09/07 13:36:38;;;;;;;;;;;24.50;68.50;;;;;;5082254;28;19936;-67
2023/09/07 13:39:03;;;;;;;;;;;24.50;68.50;;;;;;5087503;28;19947;-68
2023/09/07 13:41:29;;;;;;;;;;;24.50;68.50;;;;;;5085621;28;20294;-68
2023/09/07 13:43:56;;;;;;;;;;;24.50;68.40;;;;;;5100474;28;19973;-67
2023/09/07 13:46:23;;;;;;;;;;;24.50;68.20;;;;;;5081261;28;20461;-69
2023/09/07 13:48:48;;;;;;;;;;;24.60;68.40;;;;;;5083405;27;19923;-69
2023/09/07 13:51:14;;;;;;;;;;;24.60;68.40;;;;;;5093700;28;19927;-69
2023/09/07 13:53:39;;;;;;;;;;;24.70;68.70;;;;;;5087918;27;19927;-70
2023/09/07 13:56:05;;;;;;;;;;;24.70;69.00;;;;;;5083600;28;19967;-69
2023/09/07 13:58:30;;;;;;;;;;;24.70;68.90;;;;;;5089403;28;20410;-69
2023/09/07 14:00:55;;;;;;;;;;;24.70;68.50;;;;;;5089659;28;20014;-70
2023/09/07 14:03:21;;;;;;;;;;;24.70;68.00;;;;;;5107132;27;19924;-68
2023/09/07 14:05:47;;;;;;;;;;;24.70;67.90;;;;;;5089464;27;19927;-71
2023/09/07 14:08:12;;;;;;;;;;;24.70;68.20;;;;;;5089206;27;19932;-67
2023/09/07 14:10:38;;;;;;;;;;;24.70;68.50;;;;;;5086324;27;19972;-68
2023/09/07 14:13:03;;;;;;;;;;;24.70;68.80;;;;;;5083745;28;19971;-69